createdAt,value
2023-05-21T00:00:16.809Z,88338.00
2023-05-21T00:01:16.830Z,88334.00
2023-05-21T00:02:16.919Z,88336.00
2023-05-21T00:03:17.034Z,88336.00
2023-05-21T00:04:16.995Z,88328.00
2023-05-21T00:05:17.056Z,88334.00
2023-05-21T00:06:17.146Z,88330.00
2023-05-21T00:07:17.168Z,88330.00
2023-05-21T00:08:17.225Z,88330.00
2023-05-21T00:09:17.269Z,88328.00
2023-05-21T00:10:17.331Z,88330.00
2023-05-21T00:11:17.379Z,88326.00
2023-05-21T00:12:17.425Z,88326.00
2023-05-21T00:13:17.479Z,88324.00
2023-05-21T00:14:17.547Z,88328.00
2023-05-21T00:15:17.599Z,88328.00
2023-05-21T00:16:17.719Z,88326.00
2023-05-21T00:17:17.711Z,88326.00
2023-05-21T00:18:17.777Z,88330.00
2023-05-21T00:19:17.892Z,88328.00
2023-05-21T00:20:17.937Z,88326.00
2023-05-21T00:21:17.990Z,88326.00
2023-05-21T00:22:18.042Z,88320.00
2023-05-21T00:23:18.174Z,88322.00
2023-05-21T00:24:18.171Z,88322.00
2023-05-21T00:25:18.249Z,88320.00
2023-05-21T00:26:18.303Z,88322.00
2023-05-21T00:27:18.380Z,88320.00
2023-05-21T00:28:18.447Z,88326.00
2023-05-21T00:29:18.492Z,88324.00
2023-05-21T00:30:18.571Z,88322.00
2023-05-21T00:31:18.660Z,88322.00
2023-05-21T00:32:18.683Z,88326.00
2023-05-21T00:33:18.759Z,88326.00
2023-05-21T00:34:18.833Z,88322.00
2023-05-21T00:35:18.886Z,88320.00
2023-05-21T00:36:18.978Z,88322.00
2023-05-21T00:37:19.053Z,88320.00
2023-05-21T00:38:19.100Z,88318.00
2023-05-21T00:39:19.170Z,88314.00
2023-05-21T00:40:19.244Z,88318.00
2023-05-21T00:41:19.307Z,88316.00
2023-05-21T00:42:19.387Z,88312.00
2023-05-21T00:43:19.419Z,88320.00
2023-05-21T00:44:19.490Z,88318.00
2023-05-21T00:45:19.546Z,88320.00
2023-05-21T00:46:19.650Z,88318.00
2023-05-21T00:47:19.662Z,88316.00
2023-05-21T00:48:19.740Z,88314.00
2023-05-21T00:49:19.810Z,88312.00
2023-05-21T00:50:19.887Z,88316.00
2023-05-21T00:51:19.921Z,88322.00
2023-05-21T00:52:19.976Z,88320.00
2023-05-21T00:53:20.017Z,88322.00
2023-05-21T00:54:20.081Z,88320.00
2023-05-21T00:55:20.120Z,88320.00
2023-05-21T00:56:20.187Z,88316.00
2023-05-21T00:57:20.216Z,88316.00
2023-05-21T00:58:20.296Z,88314.00
2023-05-21T00:59:20.315Z,88314.00
2023-05-21T01:00:20.368Z,88318.00
2023-05-21T01:01:20.433Z,88314.00
2023-05-21T01:02:20.591Z,88310.00
2023-05-21T01:03:20.816Z,88308.00
2023-05-21T01:04:20.572Z,88306.00
2023-05-21T01:05:20.625Z,88308.00
2023-05-21T01:06:20.691Z,88306.00
2023-05-21T01:07:20.770Z,88302.00
2023-05-21T01:08:20.832Z,88304.00
2023-05-21T01:09:20.863Z,88300.00
2023-05-21T01:10:20.923Z,88300.00
2023-05-21T01:11:20.957Z,88302.00
2023-05-21T01:12:21.015Z,88304.00
2023-05-21T01:13:21.073Z,88306.00
2023-05-21T01:14:21.132Z,88302.00
2023-05-21T01:15:21.221Z,88302.00
2023-05-21T01:16:21.317Z,88304.00
2023-05-21T01:17:21.381Z,88304.00
2023-05-21T01:18:21.440Z,88306.00
2023-05-21T01:19:21.498Z,88302.00
2023-05-21T01:20:21.512Z,88302.00
2023-05-21T01:21:21.544Z,88300.00
2023-05-21T01:22:21.600Z,88296.00
2023-05-21T01:23:21.612Z,88296.00
2023-05-21T01:24:21.657Z,88292.00
2023-05-21T01:25:21.709Z,88294.00
2023-05-21T01:26:21.690Z,88292.00
2023-05-21T01:27:21.726Z,88294.00
2023-05-21T01:28:21.757Z,88294.00
2023-05-21T01:29:21.771Z,88294.00
2023-05-21T01:30:21.812Z,88292.00
2023-05-21T01:31:21.819Z,88292.00
2023-05-21T01:32:21.920Z,88296.00
2023-05-21T01:33:21.938Z,88296.00
2023-05-21T01:34:21.909Z,88294.00
2023-05-21T01:35:21.921Z,88294.00
2023-05-21T01:36:21.975Z,88292.00
2023-05-21T01:37:21.998Z,88292.00
2023-05-21T01:38:22.004Z,88298.00
2023-05-21T01:39:22.007Z,88298.00
2023-05-21T01:40:22.085Z,88294.00
2023-05-21T01:41:22.076Z,88290.00
2023-05-21T01:42:22.098Z,88290.00
2023-05-21T01:43:22.118Z,88292.00
2023-05-21T01:44:22.132Z,88294.00
2023-05-21T01:45:22.162Z,88292.00
2023-05-21T01:46:22.230Z,88296.00
2023-05-21T01:47:22.222Z,88296.00
2023-05-21T01:48:22.224Z,88296.00
2023-05-21T01:49:22.311Z,88302.00
2023-05-21T01:50:22.361Z,88296.00
2023-05-21T01:51:22.425Z,88298.00
2023-05-21T01:52:22.502Z,88298.00
2023-05-21T01:53:22.601Z,88292.00
2023-05-21T01:54:22.638Z,88294.00
2023-05-21T01:55:22.711Z,88290.00
2023-05-21T01:56:22.777Z,88296.00
2023-05-21T01:57:22.844Z,88290.00
2023-05-21T01:58:22.911Z,88296.00
2023-05-21T01:59:23.001Z,88288.00
2023-05-21T02:00:23.076Z,88296.00
2023-05-21T02:01:23.164Z,88292.00
2023-05-21T02:02:23.227Z,88288.00
2023-05-21T02:03:23.398Z,88286.00
2023-05-21T02:04:23.366Z,88286.00
2023-05-21T02:05:23.432Z,88279.00
2023-05-21T02:06:23.480Z,88283.00
2023-05-21T02:07:23.509Z,88279.00
2023-05-21T02:08:23.571Z,88275.00
2023-05-21T02:09:23.556Z,88279.00
2023-05-21T02:10:23.583Z,88279.00
2023-05-21T02:11:23.626Z,88279.00
2023-05-21T02:12:23.652Z,88277.00
2023-05-21T02:13:26.218Z,88277.00
2023-05-21T02:14:23.687Z,88271.00
2023-05-21T02:15:23.717Z,88273.00
2023-05-21T02:16:23.813Z,88271.00
2023-05-21T02:17:23.794Z,88271.00
2023-05-21T02:18:23.795Z,88269.00
2023-05-21T02:19:23.866Z,88273.00
2023-05-21T02:20:23.851Z,88271.00
2023-05-21T02:21:23.855Z,88265.00
2023-05-21T02:22:23.895Z,88263.00
2023-05-21T02:23:23.920Z,88265.00
2023-05-21T02:24:23.975Z,88259.00
2023-05-21T02:25:23.958Z,88261.00
2023-05-21T02:26:23.997Z,88263.00
2023-05-21T02:27:24.009Z,88259.00
2023-05-21T02:28:24.037Z,88265.00
2023-05-21T02:29:24.047Z,88263.00
2023-05-21T02:30:24.082Z,88259.00
2023-05-21T02:31:24.095Z,88263.00
2023-05-21T02:32:24.162Z,88259.00
2023-05-21T02:33:24.146Z,88253.00
2023-05-21T02:34:24.236Z,88253.00
2023-05-21T02:35:24.206Z,88247.00
2023-05-21T02:36:24.225Z,88249.00
2023-05-21T02:37:24.251Z,88247.00
2023-05-21T02:38:24.264Z,88253.00
2023-05-21T02:39:24.281Z,88249.00
2023-05-21T02:40:24.323Z,88251.00
2023-05-21T02:41:24.336Z,88245.00
2023-05-21T02:42:24.362Z,88245.00
2023-05-21T02:43:24.362Z,88245.00
2023-05-21T02:44:24.376Z,88251.00
2023-05-21T02:45:24.402Z,88249.00
2023-05-21T02:46:24.589Z,88251.00
2023-05-21T02:47:24.482Z,88251.00
2023-05-21T02:48:24.461Z,88253.00
2023-05-21T02:49:24.473Z,88251.00
2023-05-21T02:50:24.517Z,88255.00
2023-05-21T02:51:24.520Z,88255.00
2023-05-21T02:52:24.564Z,88255.00
2023-05-21T02:53:24.566Z,88257.00
2023-05-21T02:54:24.616Z,88257.00
2023-05-21T02:55:24.717Z,88255.00
2023-05-21T02:56:24.784Z,88259.00
2023-05-21T02:57:24.871Z,88257.00
2023-05-21T02:58:24.972Z,88257.00
2023-05-21T02:59:25.058Z,88257.00
2023-05-21T03:00:25.143Z,88257.00
2023-05-21T03:01:25.272Z,88257.00
2023-05-21T03:02:25.377Z,88259.00
2023-05-21T03:03:25.467Z,88255.00
2023-05-21T03:04:25.388Z,88259.00
2023-05-21T03:05:25.420Z,88259.00
2023-05-21T03:06:25.437Z,88253.00
2023-05-21T03:07:25.473Z,88255.00
2023-05-21T03:08:25.489Z,88253.00
2023-05-21T03:09:25.542Z,88255.00
2023-05-21T03:10:25.681Z,88253.00
2023-05-21T03:11:25.624Z,88253.00
2023-05-21T03:12:25.672Z,88257.00
2023-05-21T03:13:25.727Z,88259.00
2023-05-21T03:14:25.679Z,88263.00
2023-05-21T03:15:25.708Z,88257.00
2023-05-21T03:16:25.762Z,88257.00
2023-05-21T03:17:25.769Z,88255.00
2023-05-21T03:18:25.810Z,88259.00
2023-05-21T03:19:25.915Z,88261.00
2023-05-21T03:20:25.873Z,88259.00
2023-05-21T03:21:25.891Z,88257.00
2023-05-21T03:22:25.956Z,88259.00
2023-05-21T03:23:25.977Z,88261.00
2023-05-21T03:24:26.087Z,88261.00
2023-05-21T03:25:26.174Z,88263.00
2023-05-21T03:26:26.255Z,88261.00
2023-05-21T03:27:26.321Z,88253.00
2023-05-21T03:28:26.400Z,88259.00
2023-05-21T03:29:26.440Z,88263.00
2023-05-21T03:30:26.509Z,88263.00
2023-05-21T03:31:26.595Z,88263.00
2023-05-21T03:32:26.646Z,88259.00
2023-05-21T03:33:26.648Z,88265.00
2023-05-21T03:34:26.660Z,88261.00
2023-05-21T03:35:26.720Z,88265.00
2023-05-21T03:36:26.782Z,88263.00
2023-05-21T03:37:26.837Z,88261.00
2023-05-21T03:38:26.866Z,88261.00
2023-05-21T03:39:26.902Z,88269.00
2023-05-21T03:40:26.952Z,88265.00
2023-05-21T03:41:27.040Z,88267.00
2023-05-21T03:42:27.045Z,88263.00
2023-05-21T03:43:27.063Z,88269.00
2023-05-21T03:44:27.125Z,88273.00
2023-05-21T03:45:27.169Z,88273.00
2023-05-21T03:46:27.208Z,88269.00
2023-05-21T03:47:27.286Z,88269.00
2023-05-21T03:48:27.291Z,88269.00
2023-05-21T03:49:27.322Z,88269.00
2023-05-21T03:50:27.375Z,88271.00
2023-05-21T03:51:27.426Z,88277.00
2023-05-21T03:52:27.424Z,88277.00
2023-05-21T03:53:27.453Z,88279.00
2023-05-21T03:54:27.474Z,88277.00
2023-05-21T03:55:27.524Z,88281.00
2023-05-21T03:56:27.564Z,88281.00
2023-05-21T03:57:27.576Z,88281.00
2023-05-21T03:58:27.618Z,88279.00
2023-05-21T03:59:27.652Z,88279.00
2023-05-21T04:00:27.671Z,88275.00
2023-05-21T04:01:27.700Z,88277.00
2023-05-21T04:02:27.775Z,88275.00
2023-05-21T04:03:27.975Z,88271.00
2023-05-21T04:04:27.843Z,88275.00
2023-05-21T04:05:27.829Z,88279.00
2023-05-21T04:06:27.867Z,88279.00
2023-05-21T04:07:27.907Z,88281.00
2023-05-21T04:08:27.944Z,88277.00
2023-05-21T04:09:27.961Z,88273.00
2023-05-21T04:10:28.045Z,88277.00
2023-05-21T04:11:28.039Z,88277.00
2023-05-21T04:12:28.081Z,88273.00
2023-05-21T04:13:28.090Z,88273.00
2023-05-21T04:14:28.130Z,88273.00
2023-05-21T04:15:28.153Z,88273.00
2023-05-21T04:16:28.266Z,88277.00
2023-05-21T04:17:28.257Z,88273.00
2023-05-21T04:18:28.311Z,88271.00
2023-05-21T04:19:28.391Z,88273.00
2023-05-21T04:20:28.358Z,88271.00
2023-05-21T04:21:28.416Z,88271.00
2023-05-21T04:22:28.447Z,88273.00
2023-05-21T04:23:28.504Z,88275.00
2023-05-21T04:24:28.536Z,88277.00
2023-05-21T04:25:28.580Z,88277.00
2023-05-21T04:26:28.610Z,88271.00
2023-05-21T04:27:28.648Z,88273.00
2023-05-21T04:28:28.763Z,88273.00
2023-05-21T04:29:28.737Z,88277.00
2023-05-21T04:30:28.797Z,88275.00
2023-05-21T04:31:28.903Z,88281.00
2023-05-21T04:32:28.848Z,88279.00
2023-05-21T04:33:28.897Z,88281.00
2023-05-21T04:34:28.915Z,88275.00
2023-05-21T04:35:28.963Z,88275.00
2023-05-21T04:36:29.055Z,88271.00
2023-05-21T04:37:29.018Z,88273.00
2023-05-21T04:38:29.064Z,88269.00
2023-05-21T04:39:29.102Z,88269.00
2023-05-21T04:40:29.148Z,88271.00
2023-05-21T04:41:29.165Z,88275.00
2023-05-21T04:42:29.216Z,88275.00
2023-05-21T04:43:29.252Z,88273.00
2023-05-21T04:44:29.276Z,88273.00
2023-05-21T04:45:29.322Z,88267.00
2023-05-21T04:46:29.388Z,88267.00
2023-05-21T04:47:29.418Z,88265.00
2023-05-21T04:48:29.453Z,88267.00
2023-05-21T04:49:29.471Z,88261.00
2023-05-21T04:50:29.533Z,88263.00
2023-05-21T04:51:29.539Z,88259.00
2023-05-21T04:52:29.569Z,88263.00
2023-05-21T04:53:29.621Z,88261.00
2023-05-21T04:54:29.631Z,88257.00
2023-05-21T04:55:29.690Z,88259.00
2023-05-21T04:56:29.741Z,88253.00
2023-05-21T04:57:29.761Z,88253.00
2023-05-21T04:58:29.782Z,88259.00
2023-05-21T04:59:29.822Z,88259.00
2023-05-21T05:00:29.857Z,88263.00
2023-05-21T05:01:29.994Z,88259.00
2023-05-21T05:02:29.979Z,88257.00
2023-05-21T05:03:29.997Z,88259.00
2023-05-21T05:04:30.012Z,88261.00
2023-05-21T05:05:30.058Z,88259.00
2023-05-21T05:06:30.082Z,88257.00
2023-05-21T05:07:30.119Z,88257.00
2023-05-21T05:08:30.164Z,88261.00
2023-05-21T05:09:30.191Z,88255.00
2023-05-21T05:10:30.280Z,88259.00
2023-05-21T05:11:30.288Z,88257.00
2023-05-21T05:12:30.310Z,88255.00
2023-05-21T05:13:30.343Z,88255.00
2023-05-21T05:14:30.370Z,88251.00
2023-05-21T05:15:30.425Z,88257.00
2023-05-21T05:16:30.526Z,88253.00
2023-05-21T05:17:30.524Z,88251.00
2023-05-21T05:18:30.522Z,88253.00
2023-05-21T05:19:30.629Z,88253.00
2023-05-21T05:20:30.612Z,88251.00
2023-05-21T05:21:30.639Z,88249.00
2023-05-21T05:22:30.677Z,88249.00
2023-05-21T05:23:30.722Z,88249.00
2023-05-21T05:24:30.778Z,88255.00
2023-05-21T05:25:30.804Z,88251.00
2023-05-21T05:26:30.845Z,88255.00
2023-05-21T05:27:30.868Z,88259.00
2023-05-21T05:28:30.894Z,88261.00
2023-05-21T05:29:30.936Z,88261.00
2023-05-21T05:30:30.973Z,88257.00
2023-05-21T05:31:31.199Z,88259.00
2023-05-21T05:32:31.032Z,88259.00
2023-05-21T05:33:31.078Z,88263.00
2023-05-21T05:34:31.094Z,88263.00
2023-05-21T05:35:31.140Z,88263.00
2023-05-21T05:36:31.159Z,88259.00
2023-05-21T05:37:31.206Z,88261.00
2023-05-21T05:38:31.228Z,88263.00
2023-05-21T05:39:31.273Z,88259.00
2023-05-21T05:40:31.306Z,88255.00
2023-05-21T05:41:31.355Z,88253.00
2023-05-21T05:42:31.375Z,88253.00
2023-05-21T05:43:31.458Z,88249.00
2023-05-21T05:44:31.447Z,88249.00
2023-05-21T05:45:31.506Z,88251.00
2023-05-21T05:46:31.552Z,88253.00
2023-05-21T05:47:31.602Z,88249.00
2023-05-21T05:48:31.600Z,88251.00
2023-05-21T05:49:31.630Z,88249.00
2023-05-21T05:50:31.682Z,88247.00
2023-05-21T05:51:31.681Z,88247.00
2023-05-21T05:52:31.735Z,88253.00
2023-05-21T05:53:31.766Z,88249.00
2023-05-21T05:54:31.818Z,88253.00
2023-05-21T05:55:31.856Z,88249.00
2023-05-21T05:56:31.869Z,88245.00
2023-05-21T05:57:31.914Z,88243.00
2023-05-21T05:58:31.955Z,88249.00
2023-05-21T05:59:31.973Z,88249.00
2023-05-21T06:00:32.010Z,88247.00
2023-05-21T06:01:32.061Z,88247.00
2023-05-21T06:02:32.128Z,88253.00
2023-05-21T06:03:32.150Z,88253.00
2023-05-21T06:04:32.141Z,88249.00
2023-05-21T06:05:32.201Z,88249.00
2023-05-21T06:06:32.196Z,88241.00
2023-05-21T06:07:32.228Z,88243.00
2023-05-21T06:08:32.272Z,88247.00
2023-05-21T06:09:32.312Z,88245.00
2023-05-21T06:10:32.346Z,88243.00
2023-05-21T06:11:32.354Z,88247.00
2023-05-21T06:12:32.385Z,88241.00
2023-05-21T06:13:32.401Z,88237.00
2023-05-21T06:14:32.445Z,88239.00
2023-05-21T06:15:32.485Z,88237.00
2023-05-21T06:16:32.691Z,88245.00
2023-05-21T06:17:32.681Z,88245.00
2023-05-21T06:18:32.673Z,88243.00
2023-05-21T06:19:32.795Z,88249.00
2023-05-21T06:20:32.763Z,88247.00
2023-05-21T06:21:32.778Z,88245.00
2023-05-21T06:22:32.823Z,88243.00
2023-05-21T06:23:32.898Z,88241.00
2023-05-21T06:24:32.874Z,88245.00
2023-05-21T06:25:32.898Z,88245.00
2023-05-21T06:26:32.897Z,88251.00
2023-05-21T06:27:32.908Z,88253.00
2023-05-21T06:28:32.917Z,88255.00
2023-05-21T06:29:32.925Z,88249.00
2023-05-21T06:30:32.927Z,88249.00
2023-05-21T06:31:33.106Z,88249.00
2023-05-21T06:32:33.137Z,88247.00
2023-05-21T06:33:33.066Z,88251.00
2023-05-21T06:34:33.018Z,88247.00
2023-05-21T06:35:33.066Z,88249.00
2023-05-21T06:36:33.057Z,88247.00
2023-05-21T06:37:33.075Z,88249.00
2023-05-21T06:38:33.091Z,88251.00
2023-05-21T06:39:33.131Z,88255.00
2023-05-21T06:40:33.181Z,88255.00
2023-05-21T06:41:33.174Z,88259.00
2023-05-21T06:42:33.242Z,88261.00
2023-05-21T06:43:33.283Z,88261.00
2023-05-21T06:44:33.351Z,88257.00
2023-05-21T06:45:33.486Z,88259.00
2023-05-21T06:46:33.606Z,88261.00
2023-05-21T06:47:33.679Z,88263.00
2023-05-21T06:48:33.629Z,88257.00
2023-05-21T06:49:33.716Z,88259.00
2023-05-21T06:50:33.779Z,88261.00
2023-05-21T06:51:33.863Z,88265.00
2023-05-21T06:52:33.908Z,88265.00
2023-05-21T06:53:33.969Z,88263.00
2023-05-21T06:54:34.012Z,88259.00
2023-05-21T06:55:34.131Z,88259.00
2023-05-21T06:56:34.124Z,88251.00
2023-05-21T06:57:34.195Z,88259.00
2023-05-21T06:58:34.277Z,88251.00
2023-05-21T06:59:34.308Z,88251.00
2023-05-21T07:00:34.365Z,88255.00
2023-05-21T07:01:34.552Z,88259.00
2023-05-21T07:02:34.538Z,88257.00
2023-05-21T07:03:34.502Z,88267.00
2023-05-21T07:04:34.475Z,88263.00
2023-05-21T07:05:34.709Z,88267.00
2023-05-21T07:06:34.518Z,88267.00
2023-05-21T07:07:34.559Z,88265.00
2023-05-21T07:08:34.573Z,88265.00
2023-05-21T07:09:34.607Z,88265.00
2023-05-21T07:10:34.623Z,88261.00
2023-05-21T07:11:34.660Z,88265.00
2023-05-21T07:12:34.673Z,88267.00
2023-05-21T07:13:34.707Z,88263.00
2023-05-21T07:14:34.718Z,88261.00
2023-05-21T07:15:34.837Z,88261.00
2023-05-21T07:16:34.797Z,88261.00
2023-05-21T07:17:34.803Z,88263.00
2023-05-21T07:18:34.809Z,88257.00
2023-05-21T07:19:34.857Z,88261.00
2023-05-21T07:20:34.852Z,88265.00
2023-05-21T07:21:34.878Z,88267.00
2023-05-21T07:22:34.906Z,88273.00
2023-05-21T07:23:34.992Z,88271.00
2023-05-21T07:24:35.036Z,88269.00
2023-05-21T07:25:35.297Z,88259.00
2023-05-21T07:26:35.144Z,88259.00
2023-05-21T07:27:35.202Z,88263.00
2023-05-21T07:28:35.267Z,88261.00
2023-05-21T07:29:35.310Z,88265.00
2023-05-21T07:30:35.374Z,88267.00
2023-05-21T07:31:35.529Z,88265.00
2023-05-21T07:32:35.532Z,88269.00
2023-05-21T07:33:35.486Z,88267.00
2023-05-21T07:34:35.494Z,88263.00
2023-05-21T07:35:35.672Z,88267.00
2023-05-21T07:36:35.538Z,88265.00
2023-05-21T07:37:35.606Z,88267.00
2023-05-21T07:38:35.582Z,88261.00
2023-05-21T07:39:35.593Z,88257.00
2023-05-21T07:40:35.629Z,88261.00
2023-05-21T07:41:35.636Z,88257.00
2023-05-21T07:42:35.649Z,88263.00
2023-05-21T07:43:35.685Z,88261.00
2023-05-21T07:44:35.698Z,88261.00
2023-05-21T07:45:35.990Z,88257.00
2023-05-21T07:46:35.832Z,88257.00
2023-05-21T07:47:35.942Z,88253.00
2023-05-21T07:48:35.899Z,88255.00
2023-05-21T07:49:35.796Z,88255.00
2023-05-21T07:50:35.832Z,88255.00
2023-05-21T07:51:35.853Z,88257.00
2023-05-21T07:52:35.910Z,88261.00
2023-05-21T07:53:35.885Z,88257.00
2023-05-21T07:54:35.925Z,88261.00
2023-05-21T07:55:36.215Z,88259.00
2023-05-21T07:56:35.940Z,88259.00
2023-05-21T07:57:35.992Z,88259.00
2023-05-21T07:58:36.008Z,88257.00
2023-05-21T07:59:36.026Z,88255.00
2023-05-21T08:00:36.057Z,88257.00
2023-05-21T08:01:36.070Z,88255.00
2023-05-21T08:02:36.224Z,88251.00
2023-05-21T08:03:36.228Z,88249.00
2023-05-21T08:04:38.529Z,88247.00
2023-05-21T08:05:36.406Z,88253.00
2023-05-21T08:06:36.174Z,88255.00
2023-05-21T08:07:36.191Z,88255.00
2023-05-21T08:08:36.243Z,88251.00
2023-05-21T08:09:36.218Z,88249.00
2023-05-21T08:10:36.236Z,88247.00
2023-05-21T08:11:36.280Z,88251.00
2023-05-21T08:12:36.276Z,88251.00
2023-05-21T08:13:36.291Z,88245.00
2023-05-21T08:14:36.305Z,88247.00
2023-05-21T08:15:36.579Z,88249.00
2023-05-21T08:16:36.371Z,88249.00
2023-05-21T08:17:36.388Z,88249.00
2023-05-21T08:18:36.377Z,88245.00
2023-05-21T08:19:36.399Z,88243.00
2023-05-21T08:20:36.399Z,88245.00
2023-05-21T08:21:36.407Z,88243.00
2023-05-21T08:22:36.421Z,88243.00
2023-05-21T08:23:36.471Z,88241.00
2023-05-21T08:24:36.469Z,88245.00
2023-05-21T08:25:36.820Z,88247.00
2023-05-21T08:26:36.504Z,88249.00
2023-05-21T08:27:36.518Z,88247.00
2023-05-21T08:28:36.525Z,88245.00
2023-05-21T08:29:36.580Z,88247.00
2023-05-21T08:30:36.577Z,88247.00
2023-05-21T08:31:36.656Z,88243.00
2023-05-21T08:32:36.605Z,88235.00
2023-05-21T08:33:36.627Z,88237.00
2023-05-21T08:34:36.619Z,88235.00
2023-05-21T08:35:36.766Z,88235.00
2023-05-21T08:36:36.653Z,88241.00
2023-05-21T08:37:36.696Z,88243.00
2023-05-21T08:38:36.688Z,88243.00
2023-05-21T08:39:36.728Z,88245.00
2023-05-21T08:40:36.731Z,88241.00
2023-05-21T08:41:36.741Z,88237.00
2023-05-21T08:42:37.528Z,88253.00
2023-05-21T08:43:36.755Z,88255.00
2023-05-21T08:44:36.789Z,88251.00
2023-05-21T08:45:37.069Z,88253.00
2023-05-21T08:46:36.814Z,88251.00
2023-05-21T08:47:36.928Z,88245.00
2023-05-21T08:48:36.854Z,88249.00
2023-05-21T08:49:36.907Z,88251.00
2023-05-21T08:50:36.886Z,88255.00
2023-05-21T08:51:36.910Z,88255.00
2023-05-21T08:52:36.910Z,88257.00
2023-05-21T08:53:36.930Z,88255.00
2023-05-21T08:54:36.950Z,88257.00
2023-05-21T08:55:37.204Z,88259.00
2023-05-21T08:56:36.976Z,88261.00
2023-05-21T08:57:37.035Z,88273.00
2023-05-21T08:58:37.028Z,88269.00
2023-05-21T08:59:37.033Z,88261.00
2023-05-21T09:00:37.072Z,88259.00
2023-05-21T09:01:37.116Z,88259.00
2023-05-21T09:02:37.107Z,88257.00
2023-05-21T09:03:37.128Z,88261.00
2023-05-21T09:04:37.189Z,88267.00
2023-05-21T09:05:37.388Z,88265.00
2023-05-21T09:06:37.148Z,88269.00
2023-05-21T09:07:37.154Z,88265.00
2023-05-21T09:08:37.189Z,88271.00
2023-05-21T09:09:37.191Z,88271.00
2023-05-21T09:10:37.276Z,88271.00
2023-05-21T09:11:37.304Z,88269.00
2023-05-21T09:12:37.239Z,88267.00
2023-05-21T09:13:38.976Z,88267.00
2023-05-21T09:14:37.286Z,88269.00
2023-05-21T09:15:37.686Z,88263.00
2023-05-21T09:16:37.358Z,88265.00
2023-05-21T09:17:37.364Z,88263.00
2023-05-21T09:18:37.288Z,88271.00
2023-05-21T09:19:37.404Z,88267.00
2023-05-21T09:20:37.360Z,88265.00
2023-05-21T09:21:37.338Z,88261.00
2023-05-21T09:22:37.342Z,88265.00
2023-05-21T09:23:37.379Z,88267.00
2023-05-21T09:24:37.373Z,88265.00
2023-05-21T09:25:37.554Z,88261.00
2023-05-21T09:26:37.428Z,88263.00
2023-05-21T09:27:37.430Z,88261.00
2023-05-21T09:28:37.479Z,88263.00
2023-05-21T09:29:37.502Z,88263.00
2023-05-21T09:30:37.938Z,88265.00
2023-05-21T09:31:37.568Z,88263.00
2023-05-21T09:32:37.583Z,88265.00
2023-05-21T09:33:37.564Z,88263.00
2023-05-21T09:34:37.590Z,88261.00
2023-05-21T09:35:38.266Z,88261.00
2023-05-21T09:36:37.639Z,88255.00
2023-05-21T09:37:37.690Z,88259.00
2023-05-21T09:38:37.732Z,88251.00
2023-05-21T09:39:37.833Z,88255.00
2023-05-21T09:40:38.047Z,88253.00
2023-05-21T09:41:37.972Z,88255.00
2023-05-21T09:42:38.074Z,88259.00
2023-05-21T09:43:38.130Z,88259.00
2023-05-21T09:44:38.191Z,88257.00
2023-05-21T09:45:38.511Z,88259.00
2023-05-21T09:46:38.410Z,88259.00
2023-05-21T09:47:38.486Z,88259.00
2023-05-21T09:48:38.495Z,88257.00
2023-05-21T09:49:38.550Z,88261.00
2023-05-21T09:50:38.787Z,88257.00
2023-05-21T09:51:38.703Z,88259.00
2023-05-21T09:52:41.346Z,88255.00
2023-05-21T09:53:38.812Z,88257.00
2023-05-21T09:54:38.810Z,88255.00
2023-05-21T09:55:38.832Z,88251.00
2023-05-21T09:56:38.825Z,88251.00
2023-05-21T09:57:38.825Z,88253.00
2023-05-21T09:58:38.839Z,88255.00
2023-05-21T09:59:38.956Z,88255.00
2023-05-21T10:00:38.920Z,88253.00
2023-05-21T10:01:38.909Z,88251.00
2023-05-21T10:02:38.915Z,88253.00
2023-05-21T10:03:38.896Z,88249.00
2023-05-21T10:04:38.999Z,88253.00
2023-05-21T10:05:38.889Z,88255.00
2023-05-21T10:06:38.893Z,88253.00
2023-05-21T10:07:38.896Z,88251.00
2023-05-21T10:08:38.906Z,88247.00
2023-05-21T10:09:38.923Z,88245.00
2023-05-21T10:10:39.034Z,88245.00
2023-05-21T10:11:38.954Z,88243.00
2023-05-21T10:12:38.966Z,88247.00
2023-05-21T10:13:38.960Z,88247.00
2023-05-21T10:14:38.979Z,88247.00
2023-05-21T10:15:38.990Z,88249.00
2023-05-21T10:16:39.069Z,88249.00
2023-05-21T10:17:39.013Z,88253.00
2023-05-21T10:18:39.006Z,88247.00
2023-05-21T10:19:39.038Z,88243.00
2023-05-21T10:20:39.165Z,88251.00
2023-05-21T10:21:39.049Z,88251.00
2023-05-21T10:22:39.029Z,88247.00
2023-05-21T10:23:39.023Z,88249.00
2023-05-21T10:24:39.036Z,88249.00
2023-05-21T10:25:39.038Z,88247.00
2023-05-21T10:26:39.055Z,88253.00
2023-05-21T10:27:39.056Z,88253.00
2023-05-21T10:28:39.044Z,88253.00
2023-05-21T10:29:39.050Z,88255.00
2023-05-21T10:30:39.412Z,88255.00
2023-05-21T10:31:39.124Z,88253.00
2023-05-21T10:32:39.115Z,88255.00
2023-05-21T10:33:39.089Z,88255.00
2023-05-21T10:34:39.136Z,88253.00
2023-05-21T10:35:39.226Z,88249.00
2023-05-21T10:36:39.250Z,88247.00
2023-05-21T10:37:39.309Z,88245.00
2023-05-21T10:38:39.372Z,88241.00
2023-05-21T10:39:39.372Z,88241.00
2023-05-21T10:40:39.541Z,88239.00
2023-05-21T10:41:39.393Z,88235.00
2023-05-21T10:42:39.389Z,88235.00
2023-05-21T10:43:39.399Z,88239.00
2023-05-21T10:44:39.387Z,88235.00
2023-05-21T10:45:39.427Z,88235.00
2023-05-21T10:46:39.419Z,88237.00
2023-05-21T10:47:39.501Z,88237.00
2023-05-21T10:48:39.403Z,88233.00
2023-05-21T10:49:39.407Z,88235.00
2023-05-21T10:50:39.416Z,88233.00
2023-05-21T10:51:39.472Z,88233.00
2023-05-21T10:52:39.557Z,88225.00
2023-05-21T10:53:39.586Z,88225.00
2023-05-21T10:54:39.642Z,88233.00
2023-05-21T10:55:39.687Z,88225.00
2023-05-21T10:56:39.736Z,88231.00
2023-05-21T10:57:39.803Z,88225.00
2023-05-21T10:58:39.844Z,88225.00
2023-05-21T10:59:39.915Z,88231.00
2023-05-21T11:00:39.963Z,88231.00
2023-05-21T11:01:40.145Z,88233.00
2023-05-21T11:02:40.221Z,88231.00
2023-05-21T11:03:40.212Z,88231.00
2023-05-21T11:04:40.270Z,88231.00
2023-05-21T11:05:40.130Z,88235.00
2023-05-21T11:06:40.156Z,88233.00
2023-05-21T11:07:40.132Z,88237.00
2023-05-21T11:08:40.141Z,88231.00
2023-05-21T11:09:40.131Z,88237.00
2023-05-21T11:10:40.288Z,88237.00
2023-05-21T11:11:40.143Z,88233.00
2023-05-21T11:12:40.149Z,88233.00
2023-05-21T11:13:40.148Z,88233.00
2023-05-21T11:14:40.380Z,88231.00
2023-05-21T11:15:40.172Z,88231.00
2023-05-21T11:16:40.233Z,88225.00
2023-05-21T11:17:40.313Z,88221.00
2023-05-21T11:18:40.315Z,88221.00
2023-05-21T11:19:40.433Z,88219.00
2023-05-21T11:20:40.394Z,88221.00
2023-05-21T11:21:40.495Z,88219.00
2023-05-21T11:22:40.513Z,88221.00
2023-05-21T11:23:40.584Z,88219.00
2023-05-21T11:24:40.622Z,88221.00
2023-05-21T11:25:40.695Z,88221.00
2023-05-21T11:26:40.747Z,88219.00
2023-05-21T11:27:40.830Z,88219.00
2023-05-21T11:28:40.878Z,88217.00
2023-05-21T11:29:40.907Z,88217.00
2023-05-21T11:30:41.373Z,88217.00
2023-05-21T11:31:41.149Z,88215.00
2023-05-21T11:32:41.137Z,88215.00
2023-05-21T11:33:41.082Z,88213.00
2023-05-21T11:34:41.193Z,88209.00
2023-05-21T11:35:41.172Z,88213.00
2023-05-21T11:36:41.226Z,88211.00
2023-05-21T11:37:41.254Z,88209.00
2023-05-21T11:38:41.304Z,88209.00
2023-05-21T11:39:41.353Z,88207.00
2023-05-21T11:40:41.386Z,88207.00
2023-05-21T11:41:41.427Z,88207.00
2023-05-21T11:42:41.470Z,88209.00
2023-05-21T11:43:41.506Z,88207.00
2023-05-21T11:44:41.578Z,88207.00